Time;durP1;ratioP1;P1;durP2;ratioP2;P2;SDS_P1;SDS_P2;PMS_P1;PMS_P2;Temp;Humidity;BMP_temperature;BMP_pressure;BME280_temperature;BME280_humidity;BME280_pressure;Samples;Min_cycle;Max_cycle;Signal;HPM_P1;HPM_P2
2022/05/14 00:02:19;;;;;;;5.05;2.55;;;18.00;96.70;;;;;;5057049;28;20041;-82
2022/05/14 00:04:47;;;;;;;5.00;2.30;;;18.00;96.70;;;;;;5062690;28;20048;-83
2022/05/14 00:07:15;;;;;;;6.95;2.50;;;18.00;96.70;;;;;;5064118;28;20086;-82
2022/05/14 00:09:42;;;;;;;7.00;2.38;;;17.90;96.70;;;;;;5047767;28;20044;-82
2022/05/14 00:14:58;;;;;;;6.68;2.42;;;17.90;96.70;;;;;;5059586;28;20456;-82
2022/05/14 00:17:26;;;;;;;4.10;2.67;;;17.90;96.70;;;;;;5057345;28;20059;-82
2022/05/14 00:19:54;;;;;;;3.60;2.70;;;17.90;96.70;;;;;;5068041;28;20064;-82
2022/05/14 00:22:22;;;;;;;4.15;2.90;;;17.80;96.70;;;;;;5052221;28;20037;-82
2022/05/14 00:24:50;;;;;;;6.47;2.63;;;17.80;96.70;;;;;;5068191;28;20047;-82
2022/05/14 00:27:17;;;;;;;3.90;2.42;;;17.80;96.70;;;;;;5053503;28;20124;-82
2022/05/14 00:29:45;;;;;;;5.82;2.45;;;17.80;96.70;;;;;;5061110;28;20580;-81
2022/05/14 00:32:14;;;;;;;7.82;2.50;;;17.70;96.70;;;;;;5056479;28;20135;-82
2022/05/14 00:34:42;;;;;;;6.03;2.50;;;17.60;96.70;;;;;;5064854;28;20053;-83
2022/05/14 00:37:10;;;;;;;4.40;2.13;;;17.60;96.70;;;;;;5044575;28;20479;-83
2022/05/14 00:39:37;;;;;;;3.35;2.58;;;17.70;96.70;;;;;;5049773;28;20048;-83
2022/05/14 00:42:06;;;;;;;5.53;2.15;;;17.70;96.70;;;;;;5064603;28;20048;-83
2022/05/14 00:44:34;;;;;;;5.60;2.50;;;17.60;96.70;;;;;;5049419;28;20395;-83
2022/05/14 00:47:09;;;;;;;4.78;2.50;;;17.60;96.70;;;;;;5063114;28;20079;-83
2022/05/14 00:49:38;;;;;;;5.18;2.40;;;17.60;96.70;;;;;;5062835;28;20107;-83
2022/05/14 00:52:11;;;;;;;5.63;2.15;;;17.70;96.70;;;;;;5050899;28;20040;-83
2022/05/14 00:54:45;;;;;;;3.63;2.17;;;17.60;96.70;;;;;;5060249;28;20052;-83
2022/05/14 00:57:20;;;;;;;6.75;2.50;;;17.70;96.70;;;;;;5065122;28;20045;-82
2022/05/14 00:59:50;;;;;;;4.22;2.20;;;17.60;96.70;;;;;;5060603;28;20116;-83
2022/05/14 01:02:18;;;;;;;3.95;2.90;;;17.40;96.70;;;;;;5054806;28;20040;-83
2022/05/14 01:04:47;;;;;;;4.88;2.45;;;17.30;96.70;;;;;;5059097;28;20094;-83
2022/05/14 01:07:17;;;;;;;4.82;2.45;;;17.30;96.70;;;;;;5053981;28;20040;-83
2022/05/14 01:09:52;;;;;;;4.68;2.05;;;17.30;96.70;;;;;;5043548;28;20106;-83
2022/05/14 01:12:22;;;;;;;4.80;2.15;;;17.20;96.70;;;;;;5059086;28;20049;-83
2022/05/14 01:14:49;;;;;;;5.13;2.28;;;17.20;96.70;;;;;;5065518;28;20079;-83
2022/05/14 01:17:18;;;;;;;6.15;2.88;;;17.00;96.70;;;;;;5062550;28;20052;-83
2022/05/14 01:19:48;;;;;;;3.55;2.03;;;17.10;96.70;;;;;;5062995;28;20044;-83
2022/05/14 01:22:52;;;;;;;5.15;2.63;;;17.10;96.70;;;;;;5067613;28;20040;-83
2022/05/14 01:28:22;;;;;;;4.50;2.20;;;17.00;96.70;;;;;;5054747;28;20545;-81
2022/05/14 01:30:55;;;;;;;2.88;1.92;;;16.90;96.70;;;;;;5063900;28;20044;-80
2022/05/14 01:33:27;;;;;;;4.53;2.42;;;16.90;96.70;;;;;;5063088;28;20088;-85
2022/05/14 01:35:56;;;;;;;4.85;2.30;;;16.90;96.70;;;;;;5055081;28;20048;-85
2022/05/14 01:38:25;;;;;;;5.88;2.22;;;16.70;96.70;;;;;;5048000;28;20051;-84
2022/05/14 01:40:54;;;;;;;3.70;2.00;;;16.70;96.70;;;;;;5067805;28;20136;-85
2022/05/14 01:43:23;;;;;;;6.20;2.65;;;16.70;96.70;;;;;;5059959;28;20144;-83
2022/05/14 01:45:51;;;;;;;5.80;2.58;;;16.80;96.70;;;;;;5060652;28;20135;-83
2022/05/14 01:48:20;;;;;;;6.57;2.55;;;16.90;96.70;;;;;;5062720;28;20098;-83
2022/05/14 01:50:48;;;;;;;3.85;2.22;;;17.00;96.70;;;;;;5067614;28;20045;-83
2022/05/14 01:53:18;;;;;;;5.85;2.80;;;17.00;96.70;;;;;;5044896;28;20045;-83
2022/05/14 01:55:47;;;;;;;6.45;2.78;;;16.90;96.70;;;;;;5068300;28;20047;-83
2022/05/14 02:01:09;;;;;;;6.85;2.63;;;16.80;96.70;;;;;;5067346;28;20079;-82
2022/05/14 02:03:38;;;;;;;5.55;2.60;;;16.80;96.70;;;;;;5052687;28;20086;-85
2022/05/14 02:06:06;;;;;;;6.18;2.75;;;16.70;96.70;;;;;;5051508;28;20037;-83
2022/05/14 02:08:35;;;;;;;5.15;2.78;;;16.70;96.70;;;;;;5057268;28;20118;-83
2022/05/14 02:11:04;;;;;;;3.92;3.22;;;16.70;96.70;;;;;;5063208;28;20064;-84
2022/05/14 02:13:33;;;;;;;6.72;2.60;;;16.80;96.70;;;;;;5063044;28;20047;-83
2022/05/14 02:16:02;;;;;;;5.97;2.90;;;16.80;96.70;;;;;;5067186;28;20052;-83
2022/05/14 02:18:32;;;;;;;3.90;2.42;;;16.80;96.70;;;;;;5033453;28;20692;-83
2022/05/14 02:21:00;;;;;;;4.20;2.00;;;16.80;96.70;;;;;;5067349;28;20048;-83
2022/05/14 02:23:29;;;;;;;4.15;2.58;;;16.60;96.70;;;;;;5050678;28;20121;-84
2022/05/14 02:25:58;;;;;;;4.45;2.42;;;16.60;96.70;;;;;;5045938;28;20049;-83
2022/05/14 02:28:25;;;;;;;5.18;2.30;;;16.60;96.70;;;;;;5059626;28;20724;-83
2022/05/14 02:30:54;;;;;;;4.70;2.58;;;16.70;96.70;;;;;;5055976;28;20045;-83
2022/05/14 02:33:26;;;;;;;5.05;2.20;;;16.50;96.70;;;;;;5051327;28;20056;-83
2022/05/14 02:35:55;;;;;;;4.18;2.60;;;16.60;96.70;;;;;;5049253;28;20040;-83
2022/05/14 02:38:24;;;;;;;3.60;2.42;;;16.50;96.70;;;;;;5066838;28;20505;-83
2022/05/14 02:40:53;;;;;;;5.57;2.40;;;16.40;96.70;;;;;;5063087;28;20040;-84
2022/05/14 02:43:21;;;;;;;7.32;2.95;;;16.30;96.70;;;;;;5050473;28;20580;-84
2022/05/14 02:45:50;;;;;;;4.95;2.53;;;16.30;96.70;;;;;;5040643;28;20594;-82
2022/05/14 02:48:18;;;;;;;4.45;2.10;;;16.20;96.70;;;;;;5042181;28;20060;-83
2022/05/14 02:50:46;;;;;;;4.97;2.47;;;16.30;96.70;;;;;;5045240;28;20499;-83
2022/05/14 02:53:17;;;;;;;6.70;2.58;;;16.40;96.70;;;;;;5066857;28;20094;-84
2022/05/14 02:55:45;;;;;;;4.47;2.72;;;16.20;96.70;;;;;;5047788;28;20071;-83
2022/05/14 02:59:06;;;;;;;4.95;2.53;;;16.20;96.70;;;;;;5067166;28;20059;-84
2022/05/14 03:01:01;;;;;;;3.72;2.33;;;16.20;96.70;;;;;;5065811;28;20052;-83
2022/05/14 03:03:31;;;;;;;4.68;2.58;;;16.10;96.70;;;;;;5057429;28;20094;-83
2022/05/14 03:05:59;;;;;;;7.25;2.70;;;16.10;96.70;;;;;;5062668;28;20079;-83
2022/05/14 03:08:30;;;;;;;5.13;2.00;;;16.10;96.70;;;;;;5049375;28;20049;-83
2022/05/14 03:10:58;;;;;;;2.70;2.33;;;16.00;96.70;;;;;;5062804;28;20078;-83
2022/05/14 03:13:27;;;;;;;5.05;2.53;;;15.90;96.70;;;;;;5063471;28;20040;-84
2022/05/14 03:15:55;;;;;;;4.03;2.03;;;15.90;96.70;;;;;;5059694;28;20052;-84
2022/05/14 03:18:23;;;;;;;3.95;2.03;;;16.00;96.70;;;;;;5055515;28;20090;-84
2022/05/14 03:20:51;;;;;;;4.03;1.83;;;16.00;96.70;;;;;;5058703;28;20056;-83
2022/05/14 03:23:19;;;;;;;7.53;2.35;;;16.10;96.70;;;;;;5047996;28;20111;-85
2022/05/14 03:25:49;;;;;;;3.63;2.10;;;16.10;96.70;;;;;;5042039;28;20145;-83
2022/05/14 03:28:17;;;;;;;4.45;2.40;;;16.00;96.70;;;;;;5049135;28;20128;-83
2022/05/14 03:30:45;;;;;;;3.63;2.47;;;16.10;96.70;;;;;;5065231;28;20045;-84
2022/05/14 03:33:13;;;;;;;7.63;3.05;;;16.10;96.70;;;;;;5055276;28;20077;-82
2022/05/14 03:35:41;;;;;;;5.75;2.55;;;16.10;96.70;;;;;;5063016;28;20106;-84
2022/05/14 03:38:09;;;;;;;4.32;2.30;;;16.10;96.70;;;;;;5053927;28;20071;-84
2022/05/14 03:40:37;;;;;;;5.38;2.50;;;16.00;96.70;;;;;;5065995;28;20520;-84
2022/05/14 03:43:07;;;;;;;6.82;2.35;;;16.10;96.70;;;;;;5071757;28;20044;-84
2022/05/14 03:45:35;;;;;;;5.90;2.20;;;16.00;96.70;;;;;;5042428;28;20425;-84
2022/05/14 03:48:04;;;;;;;5.00;2.15;;;16.00;96.70;;;;;;5066873;28;20087;-83
2022/05/14 03:50:32;;;;;;;5.55;2.60;;;15.90;96.70;;;;;;5057320;28;20059;-83
2022/05/14 03:53:00;;;;;;;5.95;2.30;;;15.90;96.70;;;;;;5050562;28;20055;-83
2022/05/14 03:55:28;;;;;;;3.00;2.30;;;15.80;96.70;;;;;;5066142;28;20045;-84
2022/05/14 03:57:57;;;;;;;4.82;1.98;;;15.80;96.70;;;;;;5060654;28;20055;-83
2022/05/14 04:00:27;;;;;;;5.55;2.65;;;15.60;96.70;;;;;;5069712;28;20067;-84
2022/05/14 04:02:55;;;;;;;4.28;2.30;;;15.50;96.70;;;;;;5054234;28;20151;-84
2022/05/14 04:05:23;;;;;;;5.03;2.47;;;15.60;96.70;;;;;;5044993;28;20441;-84
2022/05/14 04:07:51;;;;;;;4.32;2.30;;;15.70;96.70;;;;;;5065507;28;20045;-84
2022/05/14 04:10:20;;;;;;;4.15;2.20;;;15.80;96.70;;;;;;5066544;28;20295;-83
2022/05/14 04:12:48;;;;;;;3.53;2.33;;;15.70;96.70;;;;;;5048442;28;20578;-83
2022/05/14 04:15:19;;;;;;;5.40;2.47;;;15.60;96.70;;;;;;5068514;28;20517;-83
2022/05/14 04:17:48;;;;;;;5.35;2.58;;;15.60;96.70;;;;;;5052910;28;20058;-83
2022/05/14 04:20:17;;;;;;;3.60;2.00;;;15.70;96.70;;;;;;5070173;28;20468;-83
2022/05/14 04:22:48;;;;;;;5.50;2.17;;;15.60;96.70;;;;;;5039469;28;20080;-83
2022/05/14 04:25:16;;;;;;;2.95;2.05;;;15.50;96.70;;;;;;5052890;28;20037;-83
2022/05/14 04:27:46;;;;;;;6.13;2.47;;;15.50;96.70;;;;;;5049171;28;20056;-83
2022/05/14 04:30:16;;;;;;;4.30;2.22;;;15.70;96.70;;;;;;5070414;28;20049;-83
2022/05/14 04:32:46;;;;;;;4.05;2.53;;;15.70;96.70;;;;;;5068495;28;20131;-83
2022/05/14 04:35:16;;;;;;;7.35;2.50;;;15.70;96.70;;;;;;5067113;28;20449;-82
2022/05/14 04:37:46;;;;;;;4.75;2.17;;;15.70;96.70;;;;;;5064443;28;20080;-83
2022/05/14 04:40:15;;;;;;;5.97;2.60;;;15.70;96.70;;;;;;5066470;28;20049;-83
2022/05/14 04:42:43;;;;;;;8.52;3.20;;;15.60;96.70;;;;;;5062811;28;20529;-83
2022/05/14 04:45:11;;;;;;;7.15;4.03;;;15.70;96.70;;;;;;5063542;28;20608;-83
2022/05/14 04:47:41;;;;;;;5.10;3.80;;;15.90;96.70;;;;;;5052462;28;20114;-83
2022/05/14 04:50:12;;;;;;;6.93;4.10;;;15.80;96.70;;;;;;5052235;28;20132;-83
2022/05/14 04:52:42;;;;;;;6.78;4.32;;;15.70;96.70;;;;;;5044371;28;20296;-83
2022/05/14 04:55:12;;;;;;;8.13;4.38;;;15.60;96.70;;;;;;5047742;28;20068;-82
2022/05/14 04:57:43;;;;;;;6.13;4.50;;;15.70;96.70;;;;;;5037630;28;20115;-83
2022/05/14 05:00:15;;;;;;;8.25;4.25;;;15.90;96.70;;;;;;5051185;28;20083;-83
2022/05/14 05:05:32;;;;;;;5.65;4.00;;;16.10;96.70;;;;;;5067728;28;20048;-83
2022/05/14 05:08:03;;;;;;;8.25;4.35;;;16.10;96.70;;;;;;5062862;28;20101;-83
2022/05/14 05:10:32;;;;;;;7.45;4.07;;;16.10;96.70;;;;;;5048849;28;20487;-83
2022/05/14 05:13:02;;;;;;;7.70;3.70;;;16.10;96.70;;;;;;5067409;28;20051;-83
2022/05/14 05:15:30;;;;;;;9.02;4.15;;;16.10;96.70;;;;;;5067642;28;20122;-82
2022/05/14 05:17:58;;;;;;;6.93;3.38;;;16.10;96.70;;;;;;5048527;28;20557;-82
2022/05/14 05:20:26;;;;;;;7.93;3.03;;;16.20;96.70;;;;;;5068318;28;20052;-83
2022/05/14 05:22:53;;;;;;;5.20;2.70;;;16.10;96.70;;;;;;5066782;28;20040;-83
2022/05/14 05:25:23;;;;;;;5.80;2.60;;;16.20;96.70;;;;;;5064311;28;20052;-85
2022/05/14 05:27:51;;;;;;;7.30;2.65;;;16.10;96.70;;;;;;5060452;28;20052;-85
2022/05/14 05:30:19;;;;;;;6.07;2.72;;;16.20;96.70;;;;;;5062276;28;20044;-85
2022/05/14 05:32:47;;;;;;;5.15;3.00;;;16.20;96.70;;;;;;5068407;28;20045;-84
2022/05/14 05:35:15;;;;;;;5.97;2.80;;;16.30;96.70;;;;;;5057792;28;20036;-85
2022/05/14 05:37:46;;;;;;;4.95;2.28;;;16.20;96.70;;;;;;5057216;28;20178;-84
2022/05/14 05:40:14;;;;;;;4.50;2.80;;;16.20;96.70;;;;;;5033213;28;20139;-85
2022/05/14 05:42:45;;;;;;;4.50;2.92;;;16.20;96.70;;;;;;5061084;28;20559;-82
2022/05/14 05:45:14;;;;;;;6.15;2.85;;;16.20;96.70;;;;;;5055896;28;20544;-82
2022/05/14 05:47:43;;;;;;;7.78;4.53;;;16.20;96.70;;;;;;5065270;28;20044;-82
2022/05/14 05:50:12;;;;;;;6.47;3.72;;;16.30;96.70;;;;;;5042605;28;20288;-83
2022/05/14 05:52:40;;;;;;;9.57;4.18;;;16.40;96.70;;;;;;5055481;28;20066;-82
2022/05/14 05:57:56;;;;;;;;;;;16.40;96.70;;;;;;5067264;28;20055;-81
2022/05/14 06:00:28;;;;;;;9.73;4.43;;;16.40;96.70;;;;;;5065748;28;20596;-80
2022/05/14 06:02:57;;;;;;;9.15;4.75;;;16.30;96.70;;;;;;5050851;28;20045;-81
2022/05/14 06:05:26;;;;;;;7.90;4.40;;;16.30;96.70;;;;;;5063967;28;20040;-83
2022/05/14 06:07:54;;;;;;;9.13;4.85;;;16.30;96.70;;;;;;5040619;28;20108;-81
2022/05/14 06:10:24;;;;;;;7.20;4.53;;;16.40;96.70;;;;;;5063334;28;20094;-80
2022/05/14 06:12:58;;;;;;;7.63;4.20;;;16.30;96.70;;;;;;5058804;28;20118;-82
2022/05/14 06:15:30;;;;;;;5.30;3.85;;;16.30;96.70;;;;;;5064911;28;20098;-82
2022/05/14 06:18:01;;;;;;;7.68;4.40;;;16.40;96.70;;;;;;5018639;28;20052;-80
2022/05/14 06:20:29;;;;;;;10.70;4.75;;;16.50;96.70;;;;;;5061155;28;20054;-82
2022/05/14 06:23:02;;;;;;;8.52;3.95;;;16.60;96.70;;;;;;5043186;28;20048;-82
2022/05/14 06:25:29;;;;;;;8.27;4.38;;;16.60;96.70;;;;;;5064993;28;20045;-82
2022/05/14 06:27:59;;;;;;;7.40;4.30;;;16.80;96.70;;;;;;5056458;28;20044;-82
2022/05/14 06:30:26;;;;;;;7.95;3.38;;;16.80;96.70;;;;;;5061859;28;20135;-80
2022/05/14 06:32:59;;;;;;;5.55;3.80;;;16.90;96.70;;;;;;5053241;28;20117;-82
2022/05/14 06:35:28;;;;;;;7.68;3.72;;;17.00;96.70;;;;;;5053984;28;20044;-80
2022/05/14 06:37:56;;;;;;;6.40;3.92;;;17.10;96.70;;;;;;5051551;28;20272;-79
2022/05/14 06:40:24;;;;;;;10.95;4.60;;;17.20;96.70;;;;;;5056418;28;20048;-79
2022/05/14 06:42:53;;;;;;;11.73;4.78;;;17.30;96.70;;;;;;5051998;28;20098;-82
2022/05/14 06:45:23;;;;;;;9.38;5.60;;;17.20;96.70;;;;;;5061268;28;20210;-83
2022/05/14 06:47:51;;;;;;;7.45;4.78;;;17.10;96.70;;;;;;5055475;28;20514;-81
2022/05/14 06:50:21;;;;;;;7.85;4.85;;;17.10;96.70;;;;;;5037964;28;20056;-79
2022/05/14 06:52:52;;;;;;;12.32;6.47;;;17.20;96.70;;;;;;5031690;28;20048;-80
2022/05/14 06:55:23;;;;;;;9.77;4.97;;;17.40;96.70;;;;;;5056455;28;20044;-79
2022/05/14 06:57:51;;;;;;;8.40;4.90;;;17.60;96.70;;;;;;5045169;28;20056;-81
2022/05/14 07:00:20;;;;;;;10.30;5.28;;;17.80;96.70;;;;;;5052709;28;20049;-80
2022/05/14 07:08:34;;;;;;;9.60;4.93;;;18.00;96.70;;;;;;5054778;28;20499;-81
2022/05/14 07:11:01;;;;;;;11.38;4.47;;;18.10;96.70;;;;;;5042624;28;20132;-81
2022/05/14 07:13:29;;;;;;;8.98;4.70;;;18.20;96.70;;;;;;5052492;28;20064;-80
2022/05/14 07:15:57;;;;;;;7.22;4.03;;;18.20;96.70;;;;;;5050261;28;20048;-81
2022/05/14 07:18:26;;;;;;;8.27;4.10;;;18.30;96.70;;;;;;5038846;28;20057;-81
2022/05/14 07:20:55;;;;;;;8.98;3.53;;;18.40;96.70;;;;;;5050154;28;20059;-81
2022/05/14 07:23:22;;;;;;;7.18;3.20;;;18.40;96.70;;;;;;5049957;28;20053;-81
2022/05/14 07:25:50;;;;;;;7.70;3.97;;;18.50;96.70;;;;;;5060202;28;20406;-81
2022/05/14 07:28:18;;;;;;;4.88;3.17;;;18.50;96.70;;;;;;5058572;28;20399;-79
2022/05/14 07:30:45;;;;;;;7.55;3.78;;;18.60;96.70;;;;;;5055298;28;20033;-81
2022/05/14 07:33:13;;;;;;;8.23;3.50;;;18.70;96.70;;;;;;5051847;28;20033;-81
2022/05/14 07:35:43;;;;;;;9.10;3.50;;;18.80;96.70;;;;;;5059480;28;20056;-80
2022/05/14 07:38:11;;;;;;;5.63;3.63;;;18.90;96.70;;;;;;5049378;28;20568;-80
2022/05/14 07:40:39;;;;;;;6.32;3.97;;;18.90;96.70;;;;;;5052251;28;20041;-80
2022/05/14 07:43:10;;;;;;;9.15;3.97;;;19.00;96.70;;;;;;5049684;28;20140;-80
2022/05/14 07:45:42;;;;;;;6.15;3.80;;;18.90;96.70;;;;;;5052344;28;20061;-79
2022/05/14 07:48:17;;;;;;;7.55;3.45;;;18.90;96.70;;;;;;5050979;28;20045;-78
2022/05/14 07:50:47;;;;;;;5.63;3.53;;;18.90;96.70;;;;;;5056269;28;20056;-79
2022/05/14 07:53:17;;;;;;;7.20;3.35;;;18.90;96.70;;;;;;5052321;28;20048;-78
2022/05/14 07:55:45;;;;;;;6.20;3.30;;;18.90;96.70;;;;;;5036120;28;20044;-79
2022/05/14 07:58:13;;;;;;;7.65;3.30;;;18.90;96.70;;;;;;5049382;28;20048;-79
2022/05/14 08:00:41;;;;;;;7.22;3.65;;;18.90;96.70;;;;;;5054921;28;20629;-78
2022/05/14 08:03:10;;;;;;;6.25;3.65;;;19.00;96.70;;;;;;5050103;28;20466;-80
2022/05/14 08:05:38;;;;;;;7.20;4.30;;;19.10;96.70;;;;;;5048886;28;20032;-80
2022/05/14 08:08:08;;;;;;;7.95;4.10;;;19.00;96.70;;;;;;5051619;28;20068;-80
2022/05/14 08:10:36;;;;;;;8.60;3.92;;;19.00;96.70;;;;;;5035643;28;20423;-78
2022/05/14 08:13:04;;;;;;;6.65;3.78;;;19.00;96.70;;;;;;5053624;28;20061;-79
2022/05/14 08:15:32;;;;;;;8.88;3.60;;;19.10;96.70;;;;;;5044528;28;20873;-79
2022/05/14 08:18:00;;;;;;;7.85;3.65;;;19.20;96.70;;;;;;5052438;28;20052;-79
2022/05/14 08:20:28;;;;;;;9.27;3.60;;;19.40;96.70;;;;;;5034993;28;20049;-79
2022/05/14 08:25:44;;;;;;;8.65;3.55;;;19.50;96.70;;;;;;5056953;28;20084;-79
2022/05/14 08:28:12;;;;;;;9.00;4.03;;;19.60;96.70;;;;;;5056310;28;20044;-83
2022/05/14 08:30:40;;;;;;;7.50;4.13;;;19.80;96.70;;;;;;5060969;28;20037;-79
2022/05/14 08:33:08;;;;;;;9.38;4.30;;;19.90;96.70;;;;;;5057977;28;20763;-80
2022/05/14 08:35:36;;;;;;;6.97;3.53;;;19.90;96.70;;;;;;5056980;28;20478;-79
2022/05/14 08:38:04;;;;;;;7.05;3.22;;;19.90;96.70;;;;;;5056222;28;20045;-79
2022/05/14 08:40:37;;;;;;;6.50;3.70;;;19.90;96.70;;;;;;5061294;28;20048;-77
2022/05/14 08:43:13;;;;;;;12.15;4.40;;;20.00;96.70;;;;;;5057534;28;20287;-80
2022/05/14 08:45:41;;;;;;;6.32;4.20;;;20.10;96.70;;;;;;5057037;28;20126;-81
2022/05/14 08:48:14;;;;;;;6.60;3.85;;;20.10;96.70;;;;;;5036929;28;20045;-81
2022/05/14 08:50:44;;;;;;;8.40;3.78;;;20.20;96.70;;;;;;5045380;28;20193;-81
2022/05/14 08:53:13;;;;;;;7.95;4.53;;;20.30;96.70;;;;;;5057876;28;20056;-81
2022/05/14 08:55:49;;;;;;;6.97;3.35;;;20.30;96.70;;;;;;5042502;28;20453;-81
2022/05/14 08:58:36;;;;;;;10.60;3.70;;;20.40;96.70;;;;;;5053741;28;20059;-80
2022/05/14 09:01:06;;;;;;;8.68;3.10;;;20.40;96.70;;;;;;5061607;28;21224;-81
2022/05/14 09:03:34;;;;;;;10.05;3.47;;;20.60;96.70;;;;;;5044978;28;20788;-80
2022/05/14 09:06:02;;;;;;;8.35;2.90;;;20.60;96.70;;;;;;5040477;28;20846;-80
2022/05/14 09:08:30;;;;;;;6.65;3.30;;;20.70;96.70;;;;;;5053578;28;20612;-81
2022/05/14 09:11:01;;;;;;;8.80;3.30;;;20.70;96.70;;;;;;5044229;28;20048;-80
2022/05/14 09:13:43;;;;;;;8.18;3.78;;;20.90;96.70;;;;;;5054814;28;20048;-80
2022/05/14 09:16:22;;;;;;;8.60;3.40;;;20.90;96.70;;;;;;5052925;28;20049;-81
2022/05/14 09:18:53;;;;;;;14.23;4.40;;;21.00;96.70;;;;;;5059673;28;20052;-79
2022/05/14 09:21:23;;;;;;;9.68;3.60;;;21.10;96.70;;;;;;5057529;28;20053;-79
2022/05/14 09:23:54;;;;;;;6.40;3.25;;;21.20;96.70;;;;;;5047675;28;20607;-80
2022/05/14 09:26:34;;;;;;;7.53;4.07;;;21.30;96.70;;;;;;5057055;28;20040;-80
2022/05/14 09:29:18;;;;;;;9.60;3.78;;;21.30;96.70;;;;;;5052385;28;20040;-80
2022/05/14 09:31:53;;;;;;;10.02;3.75;;;21.40;96.70;;;;;;5058147;28;20677;-79
2022/05/14 09:34:22;;;;;;;7.05;3.67;;;21.40;96.70;;;;;;5038095;28;20059;-80
2022/05/14 09:37:05;;;;;;;7.05;3.17;;;21.50;96.70;;;;;;5043435;28;20041;-78
2022/05/14 09:39:34;;;;;;;6.60;3.55;;;21.60;96.70;;;;;;5058068;28;20049;-80
2022/05/14 09:42:04;;;;;;;7.85;3.40;;;21.60;96.70;;;;;;5054500;28;20064;-80
2022/05/14 09:44:48;;;;;;;8.85;3.63;;;21.70;96.70;;;;;;5056124;28;20276;-79
2022/05/14 09:47:25;;;;;;;7.93;3.33;;;21.80;96.70;;;;;;5059904;28;20053;-78
2022/05/14 09:49:55;;;;;;;5.88;3.60;;;21.80;96.70;;;;;;5059161;28;20047;-78
2022/05/14 09:52:25;;;;;;;9.32;3.47;;;21.90;96.70;;;;;;5053942;28;20051;-79
2022/05/14 09:54:54;;;;;;;8.35;3.90;;;22.00;96.70;;;;;;5054544;28;20710;-78
2022/05/14 09:57:41;;;;;;;8.07;3.70;;;22.00;96.70;;;;;;5037908;28;20506;-78
2022/05/14 10:00:13;;;;;;;;;;;22.10;96.70;;;;;;5042458;28;20052;-79
2022/05/14 10:03:19;;;;;;;7.68;3.75;;;22.30;96.70;;;;;;5049055;28;19947;-79
2022/05/14 10:05:57;;;;;;;6.50;3.58;;;22.40;96.70;;;;;;5001463;28;20118;-80
2022/05/14 10:08:38;;;;;;;8.13;3.67;;;22.50;96.70;;;;;;5054062;28;20147;-79
2022/05/14 10:11:12;;;;;;;9.45;3.63;;;22.60;96.70;;;;;;5054056;28;20414;-79
2022/05/14 10:13:49;;;;;;;9.82;3.33;;;22.70;96.70;;;;;;5053622;28;20044;-79
2022/05/14 10:16:21;;;;;;;;;;;22.80;96.70;;;;;;5048452;28;20484;-79
2022/05/14 10:19:04;;;;;;;13.05;3.25;;;22.90;96.70;;;;;;5052769;28;20378;-79
2022/05/14 10:21:40;;;;;;;9.75;2.75;;;23.00;96.70;;;;;;5049464;28;20158;-79
2022/05/14 10:27:35;;;;;;;11.88;3.47;;;23.20;96.70;;;;;;5049545;28;20131;-79
2022/05/14 10:30:16;;;;;;;10.40;3.42;;;23.30;96.70;;;;;;5055906;28;20631;-79
2022/05/14 10:32:49;;;;;;;14.95;3.58;;;23.40;96.70;;;;;;5043931;28;20048;-77
2022/05/14 10:35:24;;;;;;;10.30;3.35;;;23.60;96.70;;;;;;5037365;28;20164;-79
2022/05/14 10:37:55;;;;;;;9.90;2.78;;;23.50;96.70;;;;;;5055371;28;20053;-78
2022/05/14 10:40:30;;;;;;;17.77;9.07;;;23.60;96.70;;;;;;5051093;28;20052;-79
2022/05/14 10:43:16;;;;;;;22.00;11.55;;;23.80;96.70;;;;;;5053970;28;20040;-79
2022/05/14 10:45:47;;;;;;;12.95;3.60;;;23.90;96.70;;;;;;5038661;28;20064;-79
2022/05/14 10:48:28;;;;;;;12.68;8.15;;;23.90;96.70;;;;;;5035638;28;20045;-79
2022/05/14 10:50:57;;;;;;;10.25;4.10;;;24.10;96.70;;;;;;5041954;28;20044;-79
2022/05/14 10:53:25;;;;;;;11.35;3.20;;;24.30;96.70;;;;;;5051662;28;20036;-79
2022/05/14 10:56:00;;;;;;;10.93;4.25;;;24.30;96.70;;;;;;5056850;28;20044;-79
2022/05/14 10:58:39;;;;;;;6.40;2.92;;;24.30;96.70;;;;;;5057928;28;20059;-80
2022/05/14 11:01:29;;;;;;;6.93;3.30;;;24.40;96.70;;;;;;5041409;28;20048;-79
2022/05/14 11:04:13;;;;;;;14.75;4.00;;;24.40;96.70;;;;;;5057587;28;20051;-79
2022/05/14 11:06:52;;;;;;;6.45;3.50;;;24.50;96.70;;;;;;5048764;28;20040;-79
2022/05/14 11:09:23;;;;;;;12.68;3.22;;;24.60;96.70;;;;;;5054265;28;20059;-79
2022/05/14 11:11:57;;;;;;;10.90;3.17;;;24.70;96.70;;;;;;5052285;28;20082;-79
2022/05/14 11:14:37;;;;;;;8.65;3.28;;;24.80;96.70;;;;;;5050262;28;20049;-78
2022/05/14 11:17:18;;;;;;;9.13;3.40;;;24.80;96.70;;;;;;5031914;28;20063;-79
2022/05/14 11:19:48;;;;;;;8.27;3.90;;;25.00;96.70;;;;;;5050070;28;20136;-79
2022/05/14 11:22:24;;;;;;;6.68;3.17;;;25.00;96.70;;;;;;5050184;28;20044;-79
2022/05/14 11:24:53;;;;;;;6.20;3.30;;;25.10;96.70;;;;;;5049595;28;20056;-79
2022/05/14 11:27:28;;;;;;;9.98;3.33;;;25.20;96.70;;;;;;5053111;28;20131;-79
2022/05/14 11:30:01;;;;;;;8.57;3.60;;;25.40;96.70;;;;;;5054800;28;20139;-79
2022/05/14 11:32:41;;;;;;;9.75;3.67;;;25.30;96.70;;;;;;5053556;28;20123;-79
2022/05/14 11:35:11;;;;;;;7.55;2.90;;;25.50;96.70;;;;;;5048039;28;20098;-80
2022/05/14 11:37:46;;;;;;;7.03;2.67;;;25.70;96.70;;;;;;5057447;28;20045;-79
2022/05/14 11:40:28;;;;;;;7.70;3.20;;;25.60;96.70;;;;;;5053161;28;20044;-79
2022/05/14 11:43:21;;;;;;;9.15;3.08;;;25.60;96.70;;;;;;5049664;28;20095;-77
2022/05/14 11:46:00;;;;;;;7.78;2.97;;;25.60;96.70;;;;;;5047556;28;20067;-78
2022/05/14 11:48:34;;;;;;;6.80;2.83;;;25.50;96.70;;;;;;5051452;28;20049;-78
2022/05/14 11:51:10;;;;;;;8.00;3.03;;;25.60;96.70;;;;;;5052445;28;20052;-77
2022/05/14 11:53:42;;;;;;;11.20;3.67;;;25.60;96.70;;;;;;5052488;28;20076;-78
2022/05/14 11:56:17;;;;;;;6.05;2.50;;;25.60;96.70;;;;;;5056792;28;20057;-77
2022/05/14 11:58:52;;;;;;;7.85;2.33;;;25.80;96.70;;;;;;5050290;28;20051;-78
2022/05/14 12:01:25;;;;;;;7.55;2.60;;;25.80;96.70;;;;;;5053903;28;20059;-79
2022/05/14 12:03:54;;;;;;;6.68;3.00;;;25.80;96.70;;;;;;5061423;28;20036;-77
2022/05/14 12:06:48;;;;;;;9.60;2.80;;;25.70;96.70;;;;;;5055771;28;20752;-79
2022/05/14 12:09:50;;;;;;;9.07;2.50;;;25.70;96.70;;;;;;5053964;28;20064;-79
2022/05/14 12:12:25;;;;;;;10.73;2.53;;;25.80;96.70;;;;;;5055247;28;20051;-79
2022/05/14 12:14:53;;;;;;;6.07;2.67;;;25.90;96.70;;;;;;5055112;28;20048;-79
2022/05/14 12:17:22;;;;;;;9.32;2.83;;;25.90;96.70;;;;;;5053201;28;20116;-79
2022/05/14 12:19:55;;;;;;;10.05;3.45;;;26.00;96.70;;;;;;5060525;28;20040;-79
2022/05/14 12:22:30;;;;;;;9.95;2.65;;;26.20;96.70;;;;;;5053694;28;20056;-79
2022/05/14 12:25:01;;;;;;;9.00;2.90;;;26.20;96.70;;;;;;5049079;28;20049;-79
2022/05/14 12:27:32;;;;;;;7.80;3.10;;;26.10;96.70;;;;;;5055566;28;20051;-79
2022/05/14 12:30:03;;;;;;;6.72;2.65;;;26.00;96.70;;;;;;5057077;28;20041;-76
2022/05/14 12:35:33;;;;;;;9.10;2.90;;;26.10;96.70;;;;;;5053680;28;20518;-76
2022/05/14 12:38:07;;;;;;;7.95;2.63;;;26.20;96.70;;;;;;5053621;28;20060;-76
2022/05/14 12:40:38;;;;;;;8.68;2.78;;;26.20;96.70;;;;;;5055931;28;20048;-80
2022/05/14 12:43:08;;;;;;;6.32;2.55;;;26.10;96.70;;;;;;5049426;28;20041;-77
2022/05/14 12:45:39;;;;;;;6.82;2.72;;;26.10;96.70;;;;;;5055670;28;20040;-78
2022/05/14 12:48:10;;;;;;;5.72;2.70;;;26.30;96.70;;;;;;5056989;28;20402;-77
2022/05/14 12:50:41;;;;;;;7.63;2.35;;;26.20;96.70;;;;;;5057365;28;20060;-77
2022/05/14 12:53:12;;;;;;;7.18;2.75;;;26.10;96.70;;;;;;5056079;28;20094;-77
2022/05/14 12:55:44;;;;;;;8.85;2.60;;;26.20;96.70;;;;;;5050220;28;20044;-77
2022/05/14 12:58:13;;;;;;;9.73;2.88;;;26.20;96.70;;;;;;5054013;28;20059;-79
2022/05/14 13:00:45;;;;;;;8.23;2.38;;;26.20;96.70;;;;;;5060939;28;20040;-80
2022/05/14 13:03:18;;;;;;;7.88;2.38;;;26.10;96.70;;;;;;5058994;28;20041;-80
2022/05/14 13:06:01;;;;;;;10.00;3.25;;;26.00;96.70;;;;;;5037220;28;20072;-79
2022/05/14 13:08:32;;;;;;;6.90;2.65;;;26.00;96.70;;;;;;5040095;28;20052;-80
2022/05/14 13:11:03;;;;;;;7.45;2.55;;;26.10;96.70;;;;;;5053517;28;20100;-78
2022/05/14 13:13:35;;;;;;;8.68;3.17;;;26.20;96.70;;;;;;5039806;28;20041;-76
2022/05/14 13:16:13;;;;;;;8.57;2.58;;;26.30;96.70;;;;;;5053553;28;20049;-77
2022/05/14 13:18:45;;;;;;;8.63;3.53;;;26.30;96.70;;;;;;5056772;28;20072;-77
2022/05/14 13:21:20;;;;;;;8.02;3.17;;;26.30;96.70;;;;;;5052158;28;20041;-77
2022/05/14 13:23:57;;;;;;;5.38;2.53;;;26.30;96.70;;;;;;5051457;28;20041;-77
2022/05/14 13:26:33;;;;;;;7.43;2.50;;;26.40;96.70;;;;;;5058902;28;20041;-79
2022/05/14 13:29:14;;;;;;;8.80;2.57;;;26.40;96.70;;;;;;5037329;28;20044;-78
2022/05/14 13:31:45;;;;;;;5.18;2.40;;;26.40;96.70;;;;;;5056126;28;20500;-78
2022/05/14 13:37:13;;;;;;;9.93;3.40;;;26.70;96.70;;;;;;5050063;28;20478;-78
2022/05/14 13:39:47;;;;;;;7.93;2.88;;;27.00;96.70;;;;;;5032641;28;20143;-78